Newbiggin-by-the-Sea, United Kingdom
Current Conditions -  °F | °C
As of 1:20 PM on Sunday 21 Dec 2014 (Local Time) from EGNT Reporting Station
Rain Showers Rain Showers  
Wind Chill: 10°   Ceiling: 1500
Heat Index: 10°   Visibility: 6mi
Dew Point:   Wind: 14mph
Humidity: 94%   Direction: 230°SW
Pressure: 29.85"   Gusts: NA
Location:  55.19°N, 1.51°W
Report Text: EGNT 211320Z 23012KT 9999 -SHRA BKN015 10/09 Q1011
Loading
Personal Weather Stations






























Interactive Weather Map New forecast layout! Learn more

10-Day Weather Forecast

Advertisements
Track Severe Weather on mobile